sensor_id;sensor_type;location;lat;lon;timestamp;P1;durP1;ratioP1;P2;durP2;ratioP2
74342;SDS011;62767;50.300;8.070;2023-11-19T00:00:50;0.93;;;0.70;;
74342;SDS011;62767;50.300;8.070;2023-11-19T00:03:16;1.55;;;0.65;;
74342;SDS011;62767;50.300;8.070;2023-11-19T00:05:43;1.50;;;1.00;;
74342;SDS011;62767;50.300;8.070;2023-11-19T00:08:10;2.00;;;0.90;;
74342;SDS011;62767;50.300;8.070;2023-11-19T00:10:36;1.00;;;0.70;;
74342;SDS011;62767;50.300;8.070;2023-11-19T00:13:01;1.40;;;0.95;;
74342;SDS011;62767;50.300;8.070;2023-11-19T00:15:28;1.30;;;0.80;;
74342;SDS011;62767;50.300;8.070;2023-11-19T00:17:53;1.65;;;0.90;;
74342;SDS011;62767;50.300;8.070;2023-11-19T00:20:20;1.67;;;0.90;;
74342;SDS011;62767;50.300;8.070;2023-11-19T00:22:47;1.77;;;1.10;;
74342;SDS011;62767;50.300;8.070;2023-11-19T00:25:19;1.48;;;0.90;;
74342;SDS011;62767;50.300;8.070;2023-11-19T00:27:46;1.33;;;0.80;;
74342;SDS011;62767;50.300;8.070;2023-11-19T00:30:13;1.17;;;0.82;;
74342;SDS011;62767;50.300;8.070;2023-11-19T00:32:39;1.20;;;0.50;;
74342;SDS011;62767;50.300;8.070;2023-11-19T00:35:06;3.25;;;0.80;;
74342;SDS011;62767;50.300;8.070;2023-11-19T00:39:58;0.98;;;0.70;;
74342;SDS011;62767;50.300;8.070;2023-11-19T00:42:24;1.10;;;0.80;;
74342;SDS011;62767;50.300;8.070;2023-11-19T00:44:50;0.70;;;0.70;;
74342;SDS011;62767;50.300;8.070;2023-11-19T00:47:16;1.70;;;0.90;;
74342;SDS011;62767;50.300;8.070;2023-11-19T00:49:46;1.02;;;0.70;;
74342;SDS011;62767;50.300;8.070;2023-11-19T00:52:13;1.17;;;0.70;;
74342;SDS011;62767;50.300;8.070;2023-11-19T00:54:40;2.08;;;0.70;;
74342;SDS011;62767;50.300;8.070;2023-11-19T00:57:05;1.25;;;0.80;;
74342;SDS011;62767;50.300;8.070;2023-11-19T00:59:31;0.75;;;0.70;;
74342;SDS011;62767;50.300;8.070;2023-11-19T01:01:58;0.60;;;0.60;;
74342;SDS011;62767;50.300;8.070;2023-11-19T01:04:29;0.77;;;0.60;;
74342;SDS011;62767;50.300;8.070;2023-11-19T01:06:55;1.10;;;0.77;;
74342;SDS011;62767;50.300;8.070;2023-11-19T01:09:20;1.38;;;0.90;;
74342;SDS011;62767;50.300;8.070;2023-11-19T01:11:46;0.77;;;0.57;;
74342;SDS011;62767;50.300;8.070;2023-11-19T01:14:11;1.20;;;0.80;;
74342;SDS011;62767;50.300;8.070;2023-11-19T01:16:37;1.10;;;0.80;;
74342;SDS011;62767;50.300;8.070;2023-11-19T01:19:03;1.20;;;0.75;;
74342;SDS011;62767;50.300;8.070;2023-11-19T01:23:57;1.58;;;0.82;;
74342;SDS011;62767;50.300;8.070;2023-11-19T01:26:24;0.73;;;0.70;;
74342;SDS011;62767;50.300;8.070;2023-11-19T01:28:49;0.75;;;0.60;;
74342;SDS011;62767;50.300;8.070;2023-11-19T01:31:18;1.05;;;0.75;;
74342;SDS011;62767;50.300;8.070;2023-11-19T01:33:43;0.73;;;0.70;;
74342;SDS011;62767;50.300;8.070;2023-11-19T01:36:09;0.60;;;0.60;;
74342;SDS011;62767;50.300;8.070;2023-11-19T01:38:37;1.10;;;0.68;;
74342;SDS011;62767;50.300;8.070;2023-11-19T01:41:03;1.52;;;0.60;;
74342;SDS011;62767;50.300;8.070;2023-11-19T01:43:33;0.68;;;0.68;;
74342;SDS011;62767;50.300;8.070;2023-11-19T01:46:00;1.10;;;0.73;;
74342;SDS011;62767;50.300;8.070;2023-11-19T01:48:27;0.60;;;0.60;;
74342;SDS011;62767;50.300;8.070;2023-11-19T01:50:53;0.70;;;0.60;;
74342;SDS011;62767;50.300;8.070;2023-11-19T01:53:19;1.35;;;0.50;;
74342;SDS011;62767;50.300;8.070;2023-11-19T01:55:48;0.82;;;0.70;;
74342;SDS011;62767;50.300;8.070;2023-11-19T01:58:15;0.93;;;0.70;;
74342;SDS011;62767;50.300;8.070;2023-11-19T02:00:42;1.30;;;0.70;;
74342;SDS011;62767;50.300;8.070;2023-11-19T02:03:09;0.40;;;0.40;;
74342;SDS011;62767;50.300;8.070;2023-11-19T02:05:35;0.77;;;0.52;;
74342;SDS011;62767;50.300;8.070;2023-11-19T02:08:02;0.50;;;0.50;;
74342;SDS011;62767;50.300;8.070;2023-11-19T02:10:28;1.55;;;0.70;;
74342;SDS011;62767;50.300;8.070;2023-11-19T02:12:54;0.70;;;0.60;;
74342;SDS011;62767;50.300;8.070;2023-11-19T02:15:20;0.50;;;0.50;;
74342;SDS011;62767;50.300;8.070;2023-11-19T02:17:50;0.68;;;0.50;;
74342;SDS011;62767;50.300;8.070;2023-11-19T02:22:42;0.60;;;0.55;;
74342;SDS011;62767;50.300;8.070;2023-11-19T02:25:31;1.02;;;0.60;;
74342;SDS011;62767;50.300;8.070;2023-11-19T02:28:01;0.73;;;0.50;;
74342;SDS011;62767;50.300;8.070;2023-11-19T02:30:28;0.77;;;0.60;;
74342;SDS011;62767;50.300;8.070;2023-11-19T02:32:55;1.08;;;0.60;;
74342;SDS011;62767;50.300;8.070;2023-11-19T02:35:23;0.98;;;0.60;;
74342;SDS011;62767;50.300;8.070;2023-11-19T02:37:49;0.68;;;0.50;;
74342;SDS011;62767;50.300;8.070;2023-11-19T02:40:15;0.55;;;0.55;;
74342;SDS011;62767;50.300;8.070;2023-11-19T02:42:40;0.95;;;0.70;;
74342;SDS011;62767;50.300;8.070;2023-11-19T02:45:07;1.00;;;0.68;;
74342;SDS011;62767;50.300;8.070;2023-11-19T02:47:33;0.80;;;0.50;;
74342;SDS011;62767;50.300;8.070;2023-11-19T02:49:59;0.55;;;0.40;;
74342;SDS011;62767;50.300;8.070;2023-11-19T02:52:26;1.02;;;0.65;;
74342;SDS011;62767;50.300;8.070;2023-11-19T02:54:51;1.10;;;0.70;;
74342;SDS011;62767;50.300;8.070;2023-11-19T02:57:17;0.50;;;0.50;;
74342;SDS011;62767;50.300;8.070;2023-11-19T02:59:46;0.70;;;0.47;;
74342;SDS011;62767;50.300;8.070;2023-11-19T03:02:12;0.70;;;0.50;;
74342;SDS011;62767;50.300;8.070;2023-11-19T03:04:37;0.63;;;0.50;;
74342;SDS011;62767;50.300;8.070;2023-11-19T03:07:07;0.52;;;0.40;;
74342;SDS011;62767;50.300;8.070;2023-11-19T03:09:33;0.50;;;0.50;;
74342;SDS011;62767;50.300;8.070;2023-11-19T03:12:00;0.50;;;0.47;;
74342;SDS011;62767;50.300;8.070;2023-11-19T03:14:26;0.38;;;0.38;;
74342;SDS011;62767;50.300;8.070;2023-11-19T03:16:53;0.63;;;0.47;;
74342;SDS011;62767;50.300;8.070;2023-11-19T03:19:19;1.05;;;0.70;;
74342;SDS011;62767;50.300;8.070;2023-11-19T03:21:44;0.85;;;0.60;;
74342;SDS011;62767;50.300;8.070;2023-11-19T03:24:12;0.90;;;0.52;;
74342;SDS011;62767;50.300;8.070;2023-11-19T03:26:38;0.50;;;0.50;;
74342;SDS011;62767;50.300;8.070;2023-11-19T03:29:04;0.47;;;0.40;;
74342;SDS011;62767;50.300;8.070;2023-11-19T03:31:30;0.40;;;0.40;;
74342;SDS011;62767;50.300;8.070;2023-11-19T03:33:56;0.43;;;0.40;;
74342;SDS011;62767;50.300;8.070;2023-11-19T03:36:21;2.03;;;0.50;;
74342;SDS011;62767;50.300;8.070;2023-11-19T03:38:48;0.45;;;0.40;;
74342;SDS011;62767;50.300;8.070;2023-11-19T03:41:14;0.40;;;0.40;;
74342;SDS011;62767;50.300;8.070;2023-11-19T03:43:41;0.57;;;0.50;;
74342;SDS011;62767;50.300;8.070;2023-11-19T03:46:18;0.30;;;0.30;;
74342;SDS011;62767;50.300;8.070;2023-11-19T03:48:46;0.40;;;0.40;;
74342;SDS011;62767;50.300;8.070;2023-11-19T03:51:13;0.55;;;0.50;;
74342;SDS011;62767;50.300;8.070;2023-11-19T03:53:44;0.32;;;0.32;;
74342;SDS011;62767;50.300;8.070;2023-11-19T03:56:10;0.57;;;0.50;;
74342;SDS011;62767;50.300;8.070;2023-11-19T03:58:37;0.40;;;0.40;;
74342;SDS011;62767;50.300;8.070;2023-11-19T04:01:04;0.25;;;0.25;;
74342;SDS011;62767;50.300;8.070;2023-11-19T04:03:36;0.40;;;0.40;;
74342;SDS011;62767;50.300;8.070;2023-11-19T04:06:02;0.45;;;0.40;;
74342;SDS011;62767;50.300;8.070;2023-11-19T04:08:28;0.57;;;0.43;;
74342;SDS011;62767;50.300;8.070;2023-11-19T04:10:54;0.98;;;0.60;;
74342;SDS011;62767;50.300;8.070;2023-11-19T04:13:19;0.45;;;0.45;;
74342;SDS011;62767;50.300;8.070;2023-11-19T04:15:45;1.00;;;0.55;;
74342;SDS011;62767;50.300;8.070;2023-11-19T04:18:11;0.60;;;0.40;;
74342;SDS011;62767;50.300;8.070;2023-11-19T04:20:36;0.60;;;0.40;;
74342;SDS011;62767;50.300;8.070;2023-11-19T04:23:02;0.57;;;0.40;;
74342;SDS011;62767;50.300;8.070;2023-11-19T04:25:28;0.25;;;0.20;;
74342;SDS011;62767;50.300;8.070;2023-11-19T04:27:54;0.20;;;0.20;;
74342;SDS011;62767;50.300;8.070;2023-11-19T04:30:19;0.60;;;0.40;;
74342;SDS011;62767;50.300;8.070;2023-11-19T04:32:45;0.55;;;0.35;;
74342;SDS011;62767;50.300;8.070;2023-11-19T04:35:10;0.30;;;0.30;;
74342;SDS011;62767;50.300;8.070;2023-11-19T04:37:36;0.47;;;0.30;;
74342;SDS011;62767;50.300;8.070;2023-11-19T04:40:02;0.45;;;0.38;;
74342;SDS011;62767;50.300;8.070;2023-11-19T04:42:28;0.30;;;0.25;;
74342;SDS011;62767;50.300;8.070;2023-11-19T04:44:55;0.25;;;0.25;;
74342;SDS011;62767;50.300;8.070;2023-11-19T04:47:20;0.57;;;0.43;;
74342;SDS011;62767;50.300;8.070;2023-11-19T04:49:46;0.43;;;0.40;;
74342;SDS011;62767;50.300;8.070;2023-11-19T04:52:12;0.40;;;0.32;;
74342;SDS011;62767;50.300;8.070;2023-11-19T04:54:41;0.50;;;0.30;;
74342;SDS011;62767;50.300;8.070;2023-11-19T04:57:08;0.32;;;0.32;;
74342;SDS011;62767;50.300;8.070;2023-11-19T04:59:36;0.57;;;0.40;;
74342;SDS011;62767;50.300;8.070;2023-11-19T05:02:02;0.30;;;0.30;;
74342;SDS011;62767;50.300;8.070;2023-11-19T05:04:29;0.90;;;0.47;;
74342;SDS011;62767;50.300;8.070;2023-11-19T05:06:55;0.43;;;0.25;;
74342;SDS011;62767;50.300;8.070;2023-11-19T05:09:21;0.40;;;0.40;;
74342;SDS011;62767;50.300;8.070;2023-11-19T05:11:46;0.30;;;0.30;;
74342;SDS011;62767;50.300;8.070;2023-11-19T05:14:12;0.30;;;0.30;;
74342;SDS011;62767;50.300;8.070;2023-11-19T05:16:40;0.30;;;0.30;;
74342;SDS011;62767;50.300;8.070;2023-11-19T05:19:06;0.20;;;0.20;;
74342;SDS011;62767;50.300;8.070;2023-11-19T05:21:32;0.30;;;0.30;;
74342;SDS011;62767;50.300;8.070;2023-11-19T05:23:58;0.50;;;0.50;;
74342;SDS011;62767;50.300;8.070;2023-11-19T05:26:24;0.75;;;0.50;;
74342;SDS011;62767;50.300;8.070;2023-11-19T05:28:50;0.40;;;0.40;;
74342;SDS011;62767;50.300;8.070;2023-11-19T05:31:16;0.20;;;0.20;;
74342;SDS011;62767;50.300;8.070;2023-11-19T05:33:43;0.50;;;0.30;;
74342;SDS011;62767;50.300;8.070;2023-11-19T05:36:10;0.32;;;0.30;;
74342;SDS011;62767;50.300;8.070;2023-11-19T05:38:37;0.40;;;0.40;;
74342;SDS011;62767;50.300;8.070;2023-11-19T05:41:04;0.20;;;0.20;;
74342;SDS011;62767;50.300;8.070;2023-11-19T05:43:30;0.45;;;0.30;;
74342;SDS011;62767;50.300;8.070;2023-11-19T05:45:56;0.40;;;0.22;;
74342;SDS011;62767;50.300;8.070;2023-11-19T05:48:22;0.30;;;0.20;;
74342;SDS011;62767;50.300;8.070;2023-11-19T05:50:48;0.30;;;0.30;;
74342;SDS011;62767;50.300;8.070;2023-11-19T05:53:15;0.60;;;0.30;;
74342;SDS011;62767;50.300;8.070;2023-11-19T05:55:41;0.40;;;0.30;;
74342;SDS011;62767;50.300;8.070;2023-11-19T05:58:23;0.55;;;0.40;;
74342;SDS011;62767;50.300;8.070;2023-11-19T06:00:56;0.35;;;0.28;;
74342;SDS011;62767;50.300;8.070;2023-11-19T06:03:22;0.22;;;0.20;;
74342;SDS011;62767;50.300;8.070;2023-11-19T06:05:51;0.30;;;0.30;;
74342;SDS011;62767;50.300;8.070;2023-11-19T06:08:17;0.40;;;0.30;;
74342;SDS011;62767;50.300;8.070;2023-11-19T06:10:45;0.20;;;0.20;;
74342;SDS011;62767;50.300;8.070;2023-11-19T06:13:15;0.13;;;0.13;;
74342;SDS011;62767;50.300;8.070;2023-11-19T06:15:41;0.40;;;0.30;;
74342;SDS011;62767;50.300;8.070;2023-11-19T06:18:08;0.50;;;0.30;;
74342;SDS011;62767;50.300;8.070;2023-11-19T06:20:34;0.30;;;0.20;;
74342;SDS011;62767;50.300;8.070;2023-11-19T06:23:00;0.30;;;0.30;;
74342;SDS011;62767;50.300;8.070;2023-11-19T06:25:26;0.55;;;0.32;;
74342;SDS011;62767;50.300;8.070;2023-11-19T06:27:52;0.20;;;0.20;;
74342;SDS011;62767;50.300;8.070;2023-11-19T06:30:18;0.20;;;0.20;;
74342;SDS011;62767;50.300;8.070;2023-11-19T06:32:44;0.17;;;0.17;;
74342;SDS011;62767;50.300;8.070;2023-11-19T06:35:09;0.85;;;0.30;;
74342;SDS011;62767;50.300;8.070;2023-11-19T06:37:35;0.20;;;0.20;;
74342;SDS011;62767;50.300;8.070;2023-11-19T06:40:03;0.40;;;0.30;;
74342;SDS011;62767;50.300;8.070;2023-11-19T06:42:30;0.30;;;0.30;;
74342;SDS011;62767;50.300;8.070;2023-11-19T06:44:56;0.38;;;0.38;;
74342;SDS011;62767;50.300;8.070;2023-11-19T06:47:25;1.65;;;0.28;;
74342;SDS011;62767;50.300;8.070;2023-11-19T06:49:52;0.90;;;0.40;;
74342;SDS011;62767;50.300;8.070;2023-11-19T06:52:19;0.47;;;0.40;;
74342;SDS011;62767;50.300;8.070;2023-11-19T06:54:45;0.20;;;0.20;;
74342;SDS011;62767;50.300;8.070;2023-11-19T06:57:13;0.80;;;0.28;;
74342;SDS011;62767;50.300;8.070;2023-11-19T06:59:39;0.40;;;0.30;;
74342;SDS011;62767;50.300;8.070;2023-11-19T07:02:05;0.20;;;0.20;;
74342;SDS011;62767;50.300;8.070;2023-11-19T07:04:31;0.50;;;0.30;;
74342;SDS011;62767;50.300;8.070;2023-11-19T07:06:58;0.40;;;0.30;;
74342;SDS011;62767;50.300;8.070;2023-11-19T07:09:25;0.47;;;0.30;;
74342;SDS011;62767;50.300;8.070;2023-11-19T07:11:51;0.50;;;0.40;;
74342;SDS011;62767;50.300;8.070;2023-11-19T07:14:17;1.00;;;0.52;;
74342;SDS011;62767;50.300;8.070;2023-11-19T07:16:44;1.00;;;0.40;;
74342;SDS011;62767;50.300;8.070;2023-11-19T07:19:11;0.68;;;0.50;;
74342;SDS011;62767;50.300;8.070;2023-11-19T07:21:37;0.73;;;0.40;;
74342;SDS011;62767;50.300;8.070;2023-11-19T07:24:12;0.43;;;0.40;;
74342;SDS011;62767;50.300;8.070;2023-11-19T07:26:45;0.65;;;0.22;;
74342;SDS011;62767;50.300;8.070;2023-11-19T07:29:15;0.88;;;0.50;;
74342;SDS011;62767;50.300;8.070;2023-11-19T07:31:42;1.08;;;0.35;;
74342;SDS011;62767;50.300;8.070;2023-11-19T07:34:09;0.50;;;0.22;;
74342;SDS011;62767;50.300;8.070;2023-11-19T07:36:37;0.63;;;0.40;;
74342;SDS011;62767;50.300;8.070;2023-11-19T07:39:03;0.25;;;0.25;;
74342;SDS011;62767;50.300;8.070;2023-11-19T07:43:56;1.13;;;0.30;;
74342;SDS011;62767;50.300;8.070;2023-11-19T07:46:21;0.65;;;0.50;;
74342;SDS011;62767;50.300;8.070;2023-11-19T07:48:47;0.40;;;0.40;;
74342;SDS011;62767;50.300;8.070;2023-11-19T07:51:13;0.45;;;0.30;;
74342;SDS011;62767;50.300;8.070;2023-11-19T07:53:40;1.13;;;0.30;;
74342;SDS011;62767;50.300;8.070;2023-11-19T07:56:06;0.30;;;0.30;;
74342;SDS011;62767;50.300;8.070;2023-11-19T07:58:34;0.63;;;0.45;;
74342;SDS011;62767;50.300;8.070;2023-11-19T08:01:00;0.77;;;0.30;;
74342;SDS011;62767;50.300;8.070;2023-11-19T08:05:54;0.95;;;0.30;;
74342;SDS011;62767;50.300;8.070;2023-11-19T08:08:21;0.43;;;0.30;;
74342;SDS011;62767;50.300;8.070;2023-11-19T08:10:46;0.30;;;0.30;;
74342;SDS011;62767;50.300;8.070;2023-11-19T08:13:13;0.30;;;0.30;;
74342;SDS011;62767;50.300;8.070;2023-11-19T08:15:38;0.57;;;0.40;;
74342;SDS011;62767;50.300;8.070;2023-11-19T08:18:05;0.28;;;0.28;;
74342;SDS011;62767;50.300;8.070;2023-11-19T08:20:32;0.45;;;0.20;;
74342;SDS011;62767;50.300;8.070;2023-11-19T08:22:58;0.73;;;0.30;;
74342;SDS011;62767;50.300;8.070;2023-11-19T08:25:24;0.30;;;0.30;;
74342;SDS011;62767;50.300;8.070;2023-11-19T08:27:50;0.52;;;0.40;;
74342;SDS011;62767;50.300;8.070;2023-11-19T08:30:15;0.43;;;0.30;;
74342;SDS011;62767;50.300;8.070;2023-11-19T08:32:41;0.47;;;0.30;;
74342;SDS011;62767;50.300;8.070;2023-11-19T08:35:06;0.30;;;0.30;;
74342;SDS011;62767;50.300;8.070;2023-11-19T08:37:32;0.55;;;0.30;;
74342;SDS011;62767;50.300;8.070;2023-11-19T08:40:01;0.60;;;0.40;;
74342;SDS011;62767;50.300;8.070;2023-11-19T08:42:28;0.35;;;0.30;;
74342;SDS011;62767;50.300;8.070;2023-11-19T08:44:54;0.60;;;0.38;;
74342;SDS011;62767;50.300;8.070;2023-11-19T08:47:20;0.25;;;0.22;;
74342;SDS011;62767;50.300;8.070;2023-11-19T08:49:48;0.20;;;0.20;;
74342;SDS011;62767;50.300;8.070;2023-11-19T08:52:17;0.65;;;0.28;;
74342;SDS011;62767;50.300;8.070;2023-11-19T08:54:43;0.35;;;0.30;;
74342;SDS011;62767;50.300;8.070;2023-11-19T08:57:08;1.05;;;0.30;;
74342;SDS011;62767;50.300;8.070;2023-11-19T08:59:35;0.40;;;0.28;;
74342;SDS011;62767;50.300;8.070;2023-11-19T09:02:00;0.35;;;0.20;;
74342;SDS011;62767;50.300;8.070;2023-11-19T09:04:27;0.45;;;0.30;;
74342;SDS011;62767;50.300;8.070;2023-11-19T09:06:53;0.60;;;0.20;;
74342;SDS011;62767;50.300;8.070;2023-11-19T09:09:18;0.80;;;0.40;;
74342;SDS011;62767;50.300;8.070;2023-11-19T09:11:44;0.50;;;0.30;;
74342;SDS011;62767;50.300;8.070;2023-11-19T09:14:09;0.30;;;0.20;;
74342;SDS011;62767;50.300;8.070;2023-11-19T09:16:35;0.63;;;0.30;;
74342;SDS011;62767;50.300;8.070;2023-11-19T09:19:00;0.50;;;0.30;;
74342;SDS011;62767;50.300;8.070;2023-11-19T09:21:27;0.98;;;0.45;;
74342;SDS011;62767;50.300;8.070;2023-11-19T09:23:55;0.15;;;0.15;;
74342;SDS011;62767;50.300;8.070;2023-11-19T09:26:21;0.60;;;0.40;;
74342;SDS011;62767;50.300;8.070;2023-11-19T09:28:46;0.30;;;0.20;;
74342;SDS011;62767;50.300;8.070;2023-11-19T09:31:16;0.75;;;0.40;;
74342;SDS011;62767;50.300;8.070;2023-11-19T09:33:42;0.40;;;0.38;;
74342;SDS011;62767;50.300;8.070;2023-11-19T09:36:08;0.82;;;0.30;;
74342;SDS011;62767;50.300;8.070;2023-11-19T09:38:35;0.40;;;0.20;;
74342;SDS011;62767;50.300;8.070;2023-11-19T09:41:04;0.75;;;0.30;;
74342;SDS011;62767;50.300;8.070;2023-11-19T09:43:33;0.90;;;0.30;;
74342;SDS011;62767;50.300;8.070;2023-11-19T09:46:09;0.70;;;0.32;;
74342;SDS011;62767;50.300;8.070;2023-11-19T09:48:39;0.20;;;0.20;;
74342;SDS011;62767;50.300;8.070;2023-11-19T09:51:08;0.30;;;0.30;;
74342;SDS011;62767;50.300;8.070;2023-11-19T09:53:35;0.55;;;0.20;;
74342;SDS011;62767;50.300;8.070;2023-11-19T09:56:02;0.50;;;0.30;;
74342;SDS011;62767;50.300;8.070;2023-11-19T09:58:34;0.50;;;0.30;;
74342;SDS011;62767;50.300;8.070;2023-11-19T10:01:00;1.10;;;0.40;;
74342;SDS011;62767;50.300;8.070;2023-11-19T10:03:28;0.60;;;0.30;;
74342;SDS011;62767;50.300;8.070;2023-11-19T10:06:09;0.52;;;0.30;;
74342;SDS011;62767;50.300;8.070;2023-11-19T10:08:39;0.25;;;0.25;;
74342;SDS011;62767;50.300;8.070;2023-11-19T10:11:08;0.52;;;0.30;;
74342;SDS011;62767;50.300;8.070;2023-11-19T10:13:35;1.20;;;0.40;;
74342;SDS011;62767;50.300;8.070;2023-11-19T10:16:08;0.73;;;0.40;;
74342;SDS011;62767;50.300;8.070;2023-11-19T10:18:36;0.20;;;0.20;;
74342;SDS011;62767;50.300;8.070;2023-11-19T10:21:06;0.38;;;0.38;;
74342;SDS011;62767;50.300;8.070;2023-11-19T10:26:13;0.20;;;0.20;;
74342;SDS011;62767;50.300;8.070;2023-11-19T10:28:39;0.65;;;0.28;;
74342;SDS011;62767;50.300;8.070;2023-11-19T10:31:11;0.28;;;0.25;;
74342;SDS011;62767;50.300;8.070;2023-11-19T10:33:38;0.45;;;0.20;;
74342;SDS011;62767;50.300;8.070;2023-11-19T10:36:04;0.50;;;0.32;;
74342;SDS011;62767;50.300;8.070;2023-11-19T10:38:30;0.50;;;0.50;;
74342;SDS011;62767;50.300;8.070;2023-11-19T10:40:56;0.52;;;0.22;;
74342;SDS011;62767;50.300;8.070;2023-11-19T10:43:22;0.50;;;0.40;;
74342;SDS011;62767;50.300;8.070;2023-11-19T10:45:48;0.95;;;0.40;;
74342;SDS011;62767;50.300;8.070;2023-11-19T10:48:14;1.02;;;0.40;;
74342;SDS011;62767;50.300;8.070;2023-11-19T10:50:41;0.52;;;0.35;;
74342;SDS011;62767;50.300;8.070;2023-11-19T10:53:10;0.63;;;0.30;;
74342;SDS011;62767;50.300;8.070;2023-11-19T10:55:41;0.73;;;0.40;;
74342;SDS011;62767;50.300;8.070;2023-11-19T10:58:07;0.60;;;0.32;;
74342;SDS011;62767;50.300;8.070;2023-11-19T11:03:12;0.40;;;0.40;;
74342;SDS011;62767;50.300;8.070;2023-11-19T11:05:42;0.47;;;0.32;;
74342;SDS011;62767;50.300;8.070;2023-11-19T11:08:08;0.50;;;0.40;;
74342;SDS011;62767;50.300;8.070;2023-11-19T11:11:08;0.70;;;0.50;;
74342;SDS011;62767;50.300;8.070;2023-11-19T11:13:27;0.60;;;0.40;;
74342;SDS011;62767;50.300;8.070;2023-11-19T11:15:56;0.77;;;0.50;;
74342;SDS011;62767;50.300;8.070;2023-11-19T11:18:25;1.67;;;0.40;;
74342;SDS011;62767;50.300;8.070;2023-11-19T11:20:52;1.38;;;0.40;;
74342;SDS011;62767;50.300;8.070;2023-11-19T11:31:43;1.08;;;0.40;;
74342;SDS011;62767;50.300;8.070;2023-11-19T11:37:12;0.57;;;0.38;;
74342;SDS011;62767;50.300;8.070;2023-11-19T11:39:48;1.33;;;0.63;;
74342;SDS011;62767;50.300;8.070;2023-11-19T11:50:11;1.15;;;0.50;;
74342;SDS011;62767;50.300;8.070;2023-11-19T11:55:28;0.63;;;0.40;;
74342;SDS011;62767;50.300;8.070;2023-11-19T11:58:07;0.82;;;0.30;;
74342;SDS011;62767;50.300;8.070;2023-11-19T12:00:37;2.38;;;0.60;;
74342;SDS011;62767;50.300;8.070;2023-11-19T12:03:05;0.93;;;0.40;;
74342;SDS011;62767;50.300;8.070;2023-11-19T12:05:32;1.00;;;0.50;;
74342;SDS011;62767;50.300;8.070;2023-11-19T12:08:01;1.30;;;0.32;;
74342;SDS011;62767;50.300;8.070;2023-11-19T12:10:30;1.60;;;0.52;;
74342;SDS011;62767;50.300;8.070;2023-11-19T12:15:25;1.70;;;0.65;;
74342;SDS011;62767;50.300;8.070;2023-11-19T12:17:53;1.55;;;0.65;;
74342;SDS011;62767;50.300;8.070;2023-11-19T12:20:21;1.27;;;0.40;;
74342;SDS011;62767;50.300;8.070;2023-11-19T12:22:48;1.98;;;0.70;;
74342;SDS011;62767;50.300;8.070;2023-11-19T12:25:15;1.63;;;0.60;;
74342;SDS011;62767;50.300;8.070;2023-11-19T12:27:43;1.23;;;0.50;;
74342;SDS011;62767;50.300;8.070;2023-11-19T12:30:10;0.75;;;0.50;;
74342;SDS011;62767;50.300;8.070;2023-11-19T12:32:43;1.02;;;0.60;;
74342;SDS011;62767;50.300;8.070;2023-11-19T12:35:10;1.30;;;0.55;;
74342;SDS011;62767;50.300;8.070;2023-11-19T12:37:42;1.80;;;0.60;;
74342;SDS011;62767;50.300;8.070;2023-11-19T12:42:48;1.35;;;0.60;;
74342;SDS011;62767;50.300;8.070;2023-11-19T12:47:42;1.30;;;0.50;;
74342;SDS011;62767;50.300;8.070;2023-11-19T12:50:15;1.35;;;0.50;;
74342;SDS011;62767;50.300;8.070;2023-11-19T12:52:47;1.13;;;0.65;;
74342;SDS011;62767;50.300;8.070;2023-11-19T12:55:27;2.60;;;0.50;;
74342;SDS011;62767;50.300;8.070;2023-11-19T12:57:54;1.05;;;0.60;;
74342;SDS011;62767;50.300;8.070;2023-11-19T13:00:24;0.75;;;0.50;;
74342;SDS011;62767;50.300;8.070;2023-11-19T13:02:51;0.88;;;0.60;;
74342;SDS011;62767;50.300;8.070;2023-11-19T13:07:47;1.00;;;0.55;;
74342;SDS011;62767;50.300;8.070;2023-11-19T13:10:13;1.77;;;0.60;;
74342;SDS011;62767;50.300;8.070;2023-11-19T13:12:38;0.82;;;0.50;;
74342;SDS011;62767;50.300;8.070;2023-11-19T13:15:04;0.95;;;0.60;;
74342;SDS011;62767;50.300;8.070;2023-11-19T13:17:30;0.90;;;0.40;;
74342;SDS011;62767;50.300;8.070;2023-11-19T13:19:56;1.85;;;0.60;;
74342;SDS011;62767;50.300;8.070;2023-11-19T13:22:22;1.00;;;0.60;;
74342;SDS011;62767;50.300;8.070;2023-11-19T13:24:48;1.40;;;0.57;;
74342;SDS011;62767;50.300;8.070;2023-11-19T13:27:14;1.40;;;0.70;;
74342;SDS011;62767;50.300;8.070;2023-11-19T13:29:39;1.00;;;0.47;;
74342;SDS011;62767;50.300;8.070;2023-11-19T13:32:05;1.20;;;0.50;;
74342;SDS011;62767;50.300;8.070;2023-11-19T13:34:31;2.42;;;0.50;;
74342;SDS011;62767;50.300;8.070;2023-11-19T13:36:56;1.73;;;0.60;;
74342;SDS011;62767;50.300;8.070;2023-11-19T13:39:22;1.45;;;0.70;;
74342;SDS011;62767;50.300;8.070;2023-11-19T13:41:49;1.98;;;0.52;;
74342;SDS011;62767;50.300;8.070;2023-11-19T13:44:15;1.45;;;0.60;;
74342;SDS011;62767;50.300;8.070;2023-11-19T13:46:46;1.77;;;0.52;;
74342;SDS011;62767;50.300;8.070;2023-11-19T13:49:12;0.88;;;0.50;;
74342;SDS011;62767;50.300;8.070;2023-11-19T13:51:38;1.35;;;0.50;;
74342;SDS011;62767;50.300;8.070;2023-11-19T13:54:03;1.23;;;0.57;;
74342;SDS011;62767;50.300;8.070;2023-11-19T13:56:29;1.45;;;0.65;;
74342;SDS011;62767;50.300;8.070;2023-11-19T13:58:54;1.30;;;0.70;;
74342;SDS011;62767;50.300;8.070;2023-11-19T14:01:20;1.65;;;0.80;;
74342;SDS011;62767;50.300;8.070;2023-11-19T14:03:46;2.45;;;0.82;;
74342;SDS011;62767;50.300;8.070;2023-11-19T14:06:11;1.38;;;0.70;;
74342;SDS011;62767;50.300;8.070;2023-11-19T14:08:38;1.27;;;0.60;;
74342;SDS011;62767;50.300;8.070;2023-11-19T14:11:03;1.65;;;0.77;;
74342;SDS011;62767;50.300;8.070;2023-11-19T14:13:30;1.65;;;0.70;;
74342;SDS011;62767;50.300;8.070;2023-11-19T14:15:56;1.52;;;0.63;;
74342;SDS011;62767;50.300;8.070;2023-11-19T14:18:21;3.47;;;1.33;;
74342;SDS011;62767;50.300;8.070;2023-11-19T14:20:48;4.57;;;1.35;;
74342;SDS011;62767;50.300;8.070;2023-11-19T14:23:13;9.93;;;2.42;;
74342;SDS011;62767;50.300;8.070;2023-11-19T14:25:39;5.72;;;2.00;;
74342;SDS011;62767;50.300;8.070;2023-11-19T14:28:05;8.43;;;2.38;;
74342;SDS011;62767;50.300;8.070;2023-11-19T14:30:31;7.50;;;1.95;;
74342;SDS011;62767;50.300;8.070;2023-11-19T14:32:56;8.48;;;2.03;;
74342;SDS011;62767;50.300;8.070;2023-11-19T14:35:22;6.32;;;1.90;;
74342;SDS011;62767;50.300;8.070;2023-11-19T14:37:47;11.13;;;2.47;;
74342;SDS011;62767;50.300;8.070;2023-11-19T14:40:14;8.43;;;2.38;;
74342;SDS011;62767;50.300;8.070;2023-11-19T14:42:39;8.32;;;2.10;;
74342;SDS011;62767;50.300;8.070;2023-11-19T14:45:05;10.55;;;1.88;;
74342;SDS011;62767;50.300;8.070;2023-11-19T14:47:32;7.15;;;1.92;;
74342;SDS011;62767;50.300;8.070;2023-11-19T14:49:58;8.30;;;2.22;;
74342;SDS011;62767;50.300;8.070;2023-11-19T14:52:23;7.88;;;2.00;;
74342;SDS011;62767;50.300;8.070;2023-11-19T14:54:49;13.38;;;2.67;;
74342;SDS011;62767;50.300;8.070;2023-11-19T14:57:16;7.07;;;1.50;;
74342;SDS011;62767;50.300;8.070;2023-11-19T14:59:42;9.25;;;2.00;;
74342;SDS011;62767;50.300;8.070;2023-11-19T15:02:08;11.05;;;1.85;;
74342;SDS011;62767;50.300;8.070;2023-11-19T15:04:33;12.07;;;2.38;;
74342;SDS011;62767;50.300;8.070;2023-11-19T15:06:59;8.93;;;1.95;;
74342;SDS011;62767;50.300;8.070;2023-11-19T15:09:25;9.35;;;1.67;;
74342;SDS011;62767;50.300;8.070;2023-11-19T15:11:55;10.52;;;1.70;;
74342;SDS011;62767;50.300;8.070;2023-11-19T15:14:20;13.23;;;1.90;;
74342;SDS011;62767;50.300;8.070;2023-11-19T15:16:46;8.55;;;1.85;;
74342;SDS011;62767;50.300;8.070;2023-11-19T15:19:12;9.98;;;1.95;;
74342;SDS011;62767;50.300;8.070;2023-11-19T15:21:39;6.65;;;1.83;;
74342;SDS011;62767;50.300;8.070;2023-11-19T15:24:06;12.32;;;1.48;;
74342;SDS011;62767;50.300;8.070;2023-11-19T15:26:36;9.48;;;1.95;;
74342;SDS011;62767;50.300;8.070;2023-11-19T15:29:02;12.10;;;1.67;;
74342;SDS011;62767;50.300;8.070;2023-11-19T15:31:29;8.98;;;1.77;;
74342;SDS011;62767;50.300;8.070;2023-11-19T15:33:55;8.63;;;1.33;;
74342;SDS011;62767;50.300;8.070;2023-11-19T15:36:21;7.65;;;1.70;;